Time;durP1;ratioP1;P1;durP2;ratioP2;P2;SDS_P1;SDS_P2;PMS_P1;PMS_P2;Temp;Humidity;BMP_temperature;BMP_pressure;BME280_temperature;BME280_humidity;BME280_pressure;Samples;Min_cycle;Max_cycle;Signal;HPM_P1;HPM_P2
2023/07/29 00:00:41;;;;;;;2.80;2.03;;;18.60;88.70;;;;;;5064013;28;20475;-76
2023/07/29 00:03:06;;;;;;;3.37;2.10;;;18.60;88.70;;;;;;5069970;28;20512;-76
2023/07/29 00:05:32;;;;;;;4.27;2.13;;;18.60;88.70;;;;;;5069015;28;20280;-74
2023/07/29 00:07:58;;;;;;;5.33;2.40;;;18.60;88.70;;;;;;5067078;28;20192;-73
2023/07/29 00:10:23;;;;;;;4.30;2.30;;;18.60;88.90;;;;;;5065287;28;20222;-74
2023/07/29 00:12:49;;;;;;;5.17;2.90;;;18.60;88.90;;;;;;5061508;28;20649;-74
2023/07/29 00:15:14;;;;;;;3.30;2.10;;;18.60;88.90;;;;;;5075622;28;20220;-73
2023/07/29 00:17:40;;;;;;;3.63;2.50;;;18.60;89.00;;;;;;5072104;28;20187;-72
2023/07/29 00:20:06;;;;;;;3.87;2.10;;;18.70;89.20;;;;;;5066593;28;20289;-73
2023/07/29 00:22:32;;;;;;;3.37;2.20;;;18.70;88.90;;;;;;5070518;28;20659;-74
2023/07/29 00:24:59;;;;;;;4.23;2.27;;;18.60;88.90;;;;;;5067550;28;20419;-73
2023/07/29 00:27:24;;;;;;;3.83;1.80;;;18.70;89.00;;;;;;5070917;28;20198;-75
2023/07/29 00:29:50;;;;;;;4.87;2.30;;;18.70;89.00;;;;;;5067439;28;20914;-74
2023/07/29 00:32:16;;;;;;;3.90;2.43;;;18.70;89.00;;;;;;5068412;28;20303;-73
2023/07/29 00:34:41;;;;;;;4.10;2.30;;;18.80;89.00;;;;;;5068831;28;20192;-73
2023/07/29 00:37:07;;;;;;;4.57;2.47;;;18.70;88.60;;;;;;5066594;28;20235;-74
2023/07/29 00:39:33;;;;;;;6.37;2.93;;;18.80;88.10;;;;;;5069492;28;20755;-72
2023/07/29 00:41:59;;;;;;;3.27;2.13;;;18.80;88.10;;;;;;5062144;28;20212;-72
2023/07/29 00:44:24;;;;;;;3.20;2.17;;;18.80;88.30;;;;;;5066151;28;20426;-73
2023/07/29 00:46:52;;;;;;;2.67;2.10;;;18.80;88.40;;;;;;5067558;28;20439;-75
2023/07/29 00:49:19;;;;;;;3.60;2.13;;;18.80;88.60;;;;;;5069259;28;20185;-72
2023/07/29 00:51:45;;;;;;;2.80;2.10;;;18.80;88.30;;;;;;5063686;28;20463;-75
2023/07/29 00:54:10;;;;;;;4.77;2.10;;;18.80;88.30;;;;;;5070761;28;20476;-75
2023/07/29 00:56:36;;;;;;;3.20;2.17;;;18.80;88.10;;;;;;5075719;28;20247;-74
2023/07/29 00:59:04;;;;;;;3.20;2.20;;;18.80;87.80;;;;;;5073329;28;20526;-75
2023/07/29 01:01:30;;;;;;;3.77;2.33;;;18.80;87.70;;;;;;5066791;28;20561;-74
2023/07/29 01:03:55;;;;;;;2.77;1.80;;;18.80;88.00;;;;;;5062318;28;20507;-74
2023/07/29 01:06:43;;;;;;;4.07;2.40;;;18.80;88.10;;;;;;5065492;28;20444;-75
2023/07/29 01:09:20;;;;;;;4.70;2.30;;;18.80;88.30;;;;;;5068432;28;20717;-74
2023/07/29 01:12:11;;;;;;;5.07;2.23;;;18.80;88.40;;;;;;5064568;28;20469;-74
2023/07/29 01:14:49;;;;;;;3.67;2.30;;;18.90;88.40;;;;;;5064780;28;20428;-75
2023/07/29 01:17:25;;;;;;;3.30;2.10;;;18.80;88.40;;;;;;5069779;28;20818;-76
2023/07/29 01:20:05;;;;;;;6.90;2.50;;;18.90;88.40;;;;;;5068198;28;20415;-77
2023/07/29 01:22:32;;;;;;;3.87;2.30;;;18.90;88.40;;;;;;5069237;28;20442;-76
2023/07/29 01:24:59;;;;;;;6.60;2.70;;;18.90;88.40;;;;;;5069730;28;20428;-75
2023/07/29 01:27:25;;;;;;;2.70;2.00;;;18.80;88.30;;;;;;5069875;28;20433;-74
2023/07/29 01:29:50;;;;;;;5.10;2.00;;;18.80;88.40;;;;;;5067369;28;20529;-75
2023/07/29 01:32:44;;;;;;;3.77;2.40;;;18.80;88.60;;;;;;5067606;28;20441;-75
2023/07/29 01:35:20;;;;;;;3.33;1.80;;;18.90;88.40;;;;;;5064959;28;20224;-74
2023/07/29 01:37:56;;;;;;;3.97;2.10;;;18.90;87.60;;;;;;5071889;28;20434;-78
2023/07/29 01:40:25;;;;;;;4.53;2.10;;;18.90;86.80;;;;;;5063484;28;20462;-77
2023/07/29 01:42:51;;;;;;;2.80;2.03;;;18.90;86.90;;;;;;5063165;28;20433;-78
2023/07/29 01:45:16;;;;;;;2.70;1.90;;;18.80;87.10;;;;;;5068606;28;20454;-77
2023/07/29 01:47:42;;;;;;;3.00;2.13;;;18.80;87.60;;;;;;5064908;28;20997;-77
2023/07/29 01:50:09;;;;;;;3.40;2.13;;;18.80;87.30;;;;;;5060063;28;20205;-75
2023/07/29 01:52:35;;;;;;;2.83;2.07;;;18.80;87.30;;;;;;5064774;28;20184;-75
2023/07/29 01:55:01;;;;;;;2.97;2.20;;;18.80;87.60;;;;;;5067843;28;20531;-76
2023/07/29 01:57:27;;;;;;;2.80;2.13;;;18.80;87.60;;;;;;5070773;28;20448;-76
2023/07/29 01:59:53;;;;;;;3.57;1.80;;;18.70;87.80;;;;;;5071079;28;20438;-78
2023/07/29 02:02:18;;;;;;;3.90;2.47;;;18.70;88.10;;;;;;5067374;28;20194;-76
2023/07/29 02:04:45;;;;;;;4.40;2.63;;;18.70;88.40;;;;;;5069113;28;20272;-74
2023/07/29 02:07:10;;;;;;;3.30;2.30;;;18.70;88.60;;;;;;5069447;28;20192;-74
2023/07/29 02:09:36;;;;;;;3.20;2.43;;;18.70;88.70;;;;;;5071045;28;20426;-74
2023/07/29 02:12:02;;;;;;;2.47;1.80;;;18.60;88.60;;;;;;5071383;28;20712;-74
2023/07/29 02:14:28;;;;;;;4.73;3.07;;;18.60;88.70;;;;;;5072964;28;20192;-75
2023/07/29 02:16:53;;;;;;;3.20;1.97;;;18.60;89.00;;;;;;5071349;28;20477;-74
2023/07/29 02:19:19;;;;;;;4.20;2.00;;;18.50;88.90;;;;;;5071247;28;20270;-75
2023/07/29 02:21:44;;;;;;;3.87;2.67;;;18.50;89.20;;;;;;5069812;28;20212;-76
2023/07/29 02:24:10;;;;;;;2.80;2.13;;;18.50;88.70;;;;;;5067425;28;20712;-75
2023/07/29 02:26:36;;;;;;;3.37;2.10;;;18.40;88.90;;;;;;5072095;28;20195;-75
2023/07/29 02:29:02;;;;;;;4.40;2.40;;;18.50;89.00;;;;;;5066801;28;20189;-74
2023/07/29 02:31:27;;;;;;;4.37;2.40;;;18.60;88.90;;;;;;5068148;28;20233;-73
2023/07/29 02:33:53;;;;;;;4.40;2.40;;;18.60;88.60;;;;;;5064674;28;20216;-74
2023/07/29 02:36:19;;;;;;;3.00;1.93;;;18.70;88.10;;;;;;5071759;28;20783;-74
2023/07/29 02:38:45;;;;;;;3.00;2.17;;;18.70;88.30;;;;;;5054887;28;20185;-73
2023/07/29 02:41:12;;;;;;;3.30;2.43;;;18.70;88.30;;;;;;5067933;28;20273;-74
2023/07/29 02:43:39;;;;;;;3.60;2.27;;;18.80;87.40;;;;;;5071718;28;20223;-74
2023/07/29 02:46:05;;;;;;;4.07;2.20;;;18.80;87.30;;;;;;5069176;28;20430;-74
2023/07/29 02:48:31;;;;;;;4.50;2.10;;;18.70;87.60;;;;;;5071825;28;20986;-75
2023/07/29 02:50:56;;;;;;;3.93;1.87;;;18.70;87.80;;;;;;5066516;28;20227;-74
2023/07/29 02:53:22;;;;;;;2.90;2.20;;;18.80;87.70;;;;;;5069232;28;20651;-75
2023/07/29 02:55:48;;;;;;;4.13;2.40;;;18.80;87.40;;;;;;5064600;28;20250;-73
2023/07/29 02:58:14;;;;;;;4.90;2.60;;;18.70;87.60;;;;;;5069948;28;20494;-72
2023/07/29 03:00:41;;;;;;;4.07;2.20;;;18.70;87.60;;;;;;5069031;28;20467;-74
2023/07/29 03:03:08;;;;;;;2.33;1.80;;;18.80;87.40;;;;;;5069248;28;20208;-72
2023/07/29 03:05:34;;;;;;;9.10;3.10;;;18.80;87.00;;;;;;5071314;28;20443;-73
2023/07/29 03:07:59;;;;;;;3.67;2.17;;;18.80;86.90;;;;;;5068628;28;20533;-75
2023/07/29 03:10:25;;;;;;;3.00;2.23;;;18.80;86.90;;;;;;5066343;28;20573;-73
2023/07/29 03:12:53;;;;;;;3.87;2.60;;;18.80;86.90;;;;;;5070780;28;20217;-74
2023/07/29 03:15:20;;;;;;;3.43;1.93;;;18.80;87.00;;;;;;5071232;28;20593;-74
2023/07/29 03:17:46;;;;;;;3.10;2.07;;;18.70;87.30;;;;;;5053244;28;20438;-73
2023/07/29 03:20:12;;;;;;;4.10;2.27;;;18.80;87.10;;;;;;5062586;28;20470;-73
2023/07/29 03:22:38;;;;;;;3.40;2.23;;;18.80;86.90;;;;;;5067167;28;20216;-74
2023/07/29 03:25:05;;;;;;;10.77;2.20;;;18.80;86.90;;;;;;5065554;28;20990;-73
2023/07/29 03:27:31;;;;;;;6.27;2.40;;;18.70;86.80;;;;;;5071838;28;20200;-74
2023/07/29 03:29:57;;;;;;;3.80;2.50;;;18.70;86.90;;;;;;5069537;28;20418;-75
2023/07/29 03:32:22;;;;;;;3.70;2.43;;;18.60;87.00;;;;;;5068395;28;20212;-74
2023/07/29 03:34:48;;;;;;;3.17;2.37;;;18.60;87.40;;;;;;5072681;28;20185;-76
2023/07/29 03:37:13;;;;;;;2.87;1.87;;;18.60;87.40;;;;;;5073710;28;20578;-75
2023/07/29 03:39:39;;;;;;;3.03;2.20;;;18.60;87.40;;;;;;5070752;28;20188;-75
2023/07/29 03:42:05;;;;;;;5.13;2.70;;;18.60;87.30;;;;;;5067928;28;20215;-74
2023/07/29 03:44:31;;;;;;;4.30;2.30;;;18.60;87.10;;;;;;5069444;28;20238;-75
2023/07/29 03:46:57;;;;;;;3.40;2.40;;;18.60;87.30;;;;;;5070805;28;20195;-74
2023/07/29 03:49:22;;;;;;;3.30;2.40;;;18.50;87.30;;;;;;5070781;28;20816;-74
2023/07/29 03:51:48;;;;;;;4.90;2.03;;;18.50;87.40;;;;;;5066558;28;20316;-75
2023/07/29 03:54:13;;;;;;;4.87;2.63;;;18.50;87.30;;;;;;5071275;28;20246;-75
2023/07/29 03:56:39;;;;;;;2.83;2.20;;;18.40;87.30;;;;;;5071832;28;20318;-73
2023/07/29 03:59:05;;;;;;;3.00;2.40;;;18.50;87.60;;;;;;5071028;28;20211;-75
2023/07/29 04:01:32;;;;;;;2.23;1.60;;;18.50;87.60;;;;;;5066312;28;20195;-75
2023/07/29 04:03:59;;;;;;;5.20;2.50;;;18.40;87.70;;;;;;5069233;28;20892;-74
2023/07/29 04:06:24;;;;;;;4.83;2.33;;;18.40;87.80;;;;;;5070407;28;20307;-74
2023/07/29 04:08:50;;;;;;;3.47;2.27;;;18.40;88.00;;;;;;5068185;28;20958;-74
2023/07/29 04:11:16;;;;;;;3.57;2.33;;;18.30;88.40;;;;;;5064568;28;20301;-73
2023/07/29 04:13:41;;;;;;;4.57;2.40;;;18.30;89.00;;;;;;5067167;28;20188;-73
2023/07/29 04:16:07;;;;;;;3.90;2.30;;;18.20;89.60;;;;;;5066473;28;20251;-73
2023/07/29 04:18:33;;;;;;;3.63;2.67;;;18.10;90.00;;;;;;5070188;28;20191;-74
2023/07/29 04:20:59;;;;;;;4.13;3.03;;;18.10;90.20;;;;;;5061667;28;20235;-74
2023/07/29 04:23:24;;;;;;;4.53;2.40;;;18.10;90.40;;;;;;5068615;28;20237;-73
2023/07/29 04:25:50;;;;;;;3.83;2.80;;;18.10;90.60;;;;;;5068980;28;20187;-74
2023/07/29 04:28:16;;;;;;;2.93;2.13;;;18.10;90.70;;;;;;5068897;28;20194;-75
2023/07/29 04:30:41;;;;;;;3.30;2.60;;;18.10;90.90;;;;;;5062117;28;20208;-75
2023/07/29 04:33:07;;;;;;;3.20;2.30;;;18.20;90.90;;;;;;5066262;28;20740;-76
2023/07/29 04:35:33;;;;;;;4.10;2.30;;;18.30;90.70;;;;;;5071039;28;20253;-76
2023/07/29 04:37:58;;;;;;;2.50;2.20;;;18.30;90.40;;;;;;5073123;28;20194;-76
2023/07/29 04:40:24;;;;;;;4.10;2.00;;;18.30;90.20;;;;;;5075169;28;20645;-76
2023/07/29 04:42:51;;;;;;;7.00;2.50;;;18.40;89.90;;;;;;5072734;28;20193;-76
2023/07/29 04:45:16;;;;;;;4.80;2.50;;;18.40;89.70;;;;;;5071706;28;20231;-73
2023/07/29 04:47:42;;;;;;;3.60;2.20;;;18.30;89.90;;;;;;5064631;28;20431;-73
2023/07/29 04:50:08;;;;;;;6.20;3.17;;;18.40;90.20;;;;;;5065945;28;20331;-74
2023/07/29 04:52:34;;;;;;;4.33;2.83;;;18.30;90.50;;;;;;5071115;28;20183;-74
2023/07/29 04:54:59;;;;;;;4.73;2.93;;;18.40;90.50;;;;;;5067084;28;20431;-73
2023/07/29 04:57:25;;;;;;;5.33;3.30;;;18.40;90.60;;;;;;5067993;28;20215;-73
2023/07/29 04:59:51;;;;;;;5.13;2.67;;;18.30;90.70;;;;;;5070053;28;20322;-74
2023/07/29 05:02:16;;;;;;;7.33;3.00;;;18.20;90.90;;;;;;5063661;28;20193;-72
2023/07/29 05:04:42;;;;;;;5.60;2.97;;;18.20;91.20;;;;;;5070070;28;20253;-75
2023/07/29 05:07:08;;;;;;;5.63;3.40;;;18.10;91.40;;;;;;5061733;28;20188;-73
2023/07/29 05:09:33;;;;;;;5.97;3.70;;;18.10;91.50;;;;;;5057866;28;20191;-73
2023/07/29 05:11:59;;;;;;;6.67;3.20;;;18.10;91.50;;;;;;5065302;28;20210;-73
2023/07/29 05:14:25;;;;;;;3.47;2.73;;;18.10;91.70;;;;;;5068675;28;20220;-73
2023/07/29 05:16:50;;;;;;;3.73;2.80;;;18.10;91.60;;;;;;5067939;28;20229;-73
2023/07/29 05:19:16;;;;;;;6.53;3.73;;;18.20;91.60;;;;;;5068663;28;20188;-73
2023/07/29 05:21:41;;;;;;;12.43;3.83;;;18.20;91.60;;;;;;5066440;28;20211;-73
2023/07/29 05:24:07;;;;;;;5.00;2.70;;;18.30;91.50;;;;;;5066876;28;20702;-73
2023/07/29 05:26:33;;;;;;;4.67;2.90;;;18.40;91.30;;;;;;5071837;28;20233;-75
2023/07/29 05:28:58;;;;;;;5.70;3.30;;;18.50;90.90;;;;;;5067720;28;20176;-74
2023/07/29 05:31:24;;;;;;;3.00;2.20;;;18.50;90.70;;;;;;5073767;28;20286;-73
2023/07/29 05:33:49;;;;;;;5.67;2.50;;;18.60;90.40;;;;;;5074376;28;20200;-73
2023/07/29 05:36:15;;;;;;;7.20;2.90;;;18.60;90.10;;;;;;5068347;28;20251;-73
2023/07/29 05:38:41;;;;;;;6.50;3.40;;;18.70;90.00;;;;;;5066753;28;20673;-72
2023/07/29 05:41:07;;;;;;;3.63;2.67;;;18.70;90.00;;;;;;5059113;28;20208;-74
2023/07/29 05:43:33;;;;;;;5.10;2.87;;;18.80;89.50;;;;;;5063880;28;20456;-74
2023/07/29 05:45:58;;;;;;;8.10;3.10;;;18.80;89.20;;;;;;5071084;28;20523;-74
2023/07/29 05:48:24;;;;;;;9.43;3.53;;;18.90;89.30;;;;;;5064080;28;20228;-75
2023/07/29 05:50:50;;;;;;;4.87;2.60;;;18.90;89.20;;;;;;5060334;28;20842;-74
2023/07/29 05:53:15;;;;;;;5.73;3.57;;;19.00;89.50;;;;;;5073010;28;20239;-74
2023/07/29 05:55:41;;;;;;;4.10;2.60;;;19.00;89.50;;;;;;5072036;28;20475;-73
2023/07/29 05:58:07;;;;;;;5.30;3.40;;;19.10;89.60;;;;;;5072955;28;20197;-74
2023/07/29 06:00:32;;;;;;;3.73;2.90;;;19.30;89.50;;;;;;5065569;28;20556;-74
2023/07/29 06:02:58;;;;;;;5.30;3.00;;;19.30;89.00;;;;;;5072427;28;20194;-73
2023/07/29 06:05:23;;;;;;;7.27;4.53;;;19.50;89.20;;;;;;5071479;28;20191;-75
2023/07/29 06:07:49;;;;;;;5.57;3.60;;;19.60;89.20;;;;;;5073002;28;20191;-74
2023/07/29 06:10:18;;;;;;;5.37;3.50;;;19.70;89.00;;;;;;5069464;28;20895;-73
2023/07/29 06:12:45;;;;;;;4.67;3.13;;;19.90;88.70;;;;;;5072249;28;20654;-74
2023/07/29 06:15:10;;;;;;;5.37;2.90;;;20.10;88.40;;;;;;5073176;28;20983;-73
2023/07/29 06:17:36;;;;;;;4.10;3.10;;;20.20;88.00;;;;;;5072298;28;20430;-73
2023/07/29 06:20:03;;;;;;;5.53;3.27;;;20.20;87.40;;;;;;5072260;28;20262;-73
2023/07/29 06:22:28;;;;;;;5.63;3.30;;;20.30;87.30;;;;;;5070279;28;20187;-73
2023/07/29 06:24:54;;;;;;;4.70;2.93;;;20.30;86.90;;;;;;5071198;28;20838;-72
2023/07/29 06:27:19;;;;;;;6.83;3.33;;;20.40;86.60;;;;;;5065634;28;20276;-73
2023/07/29 06:29:45;;;;;;;5.90;3.10;;;20.30;86.30;;;;;;5071980;28;20219;-74
2023/07/29 06:32:11;;;;;;;4.03;2.70;;;20.30;86.60;;;;;;5062500;28;20184;-74
2023/07/29 06:34:36;;;;;;;5.97;2.90;;;20.50;86.20;;;;;;5071691;28;20241;-73
2023/07/29 06:37:02;;;;;;;4.23;2.83;;;20.60;85.30;;;;;;5067962;28;20478;-73
2023/07/29 06:39:28;;;;;;;4.20;2.40;;;20.60;85.00;;;;;;5065987;28;20680;-72
2023/07/29 06:41:53;;;;;;;6.23;3.10;;;20.70;84.90;;;;;;5062070;28;20236;-73
2023/07/29 06:44:19;;;;;;;4.70;3.00;;;20.70;84.70;;;;;;5070684;28;20266;-72
2023/07/29 06:46:44;;;;;;;4.10;2.87;;;20.70;84.70;;;;;;5072066;28;20200;-74
2023/07/29 06:49:10;;;;;;;4.30;2.70;;;20.60;85.00;;;;;;5071216;28;20241;-72
2023/07/29 06:51:36;;;;;;;4.30;2.80;;;20.60;85.30;;;;;;5069799;28;20230;-70
2023/07/29 06:54:02;;;;;;;4.67;2.60;;;20.50;85.50;;;;;;5070772;28;20222;-71
2023/07/29 06:56:28;;;;;;;7.10;3.13;;;20.60;85.20;;;;;;5072267;28;20220;-72
2023/07/29 06:58:54;;;;;;;4.17;3.10;;;20.50;84.60;;;;;;5070839;28;20438;-72
2023/07/29 07:01:19;;;;;;;4.57;2.57;;;20.50;84.10;;;;;;5064168;28;20222;-71
2023/07/29 07:03:45;;;;;;;4.13;2.50;;;20.40;84.00;;;;;;5069114;28;20591;-71
2023/07/29 07:06:11;;;;;;;5.97;2.60;;;20.20;84.60;;;;;;5069476;28;20188;-73
2023/07/29 07:08:36;;;;;;;6.23;2.57;;;20.00;85.60;;;;;;5071713;28;20222;-71
2023/07/29 07:11:02;;;;;;;3.97;2.87;;;19.90;86.50;;;;;;5067185;28;20219;-73
2023/07/29 07:13:27;;;;;;;4.00;2.30;;;19.70;87.60;;;;;;5070655;28;20193;-71
2023/07/29 07:15:56;;;;;;;5.63;2.63;;;19.50;88.30;;;;;;5071326;28;20224;-73
2023/07/29 07:18:22;;;;;;;4.20;2.70;;;19.40;89.20;;;;;;5073362;28;20667;-74
2023/07/29 07:20:51;;;;;;;3.50;2.40;;;19.30;89.60;;;;;;5070748;28;20462;-73
2023/07/29 07:23:18;;;;;;;5.63;2.60;;;19.20;90.20;;;;;;5071467;28;20427;-76
2023/07/29 07:25:44;;;;;;;3.97;2.50;;;19.20;90.40;;;;;;5071927;28;20527;-77
2023/07/29 07:28:10;;;;;;;5.40;1.87;;;19.20;90.30;;;;;;5072091;28;20518;-73
2023/07/29 07:30:39;;;;;;;4.20;2.00;;;19.10;90.20;;;;;;5068585;28;20533;-75
2023/07/29 07:33:04;;;;;;;5.07;1.90;;;19.10;90.10;;;;;;5063991;28;20879;-72
2023/07/29 07:35:30;;;;;;;7.10;2.10;;;19.20;89.90;;;;;;5071690;28;20477;-71
2023/07/29 07:37:55;;;;;;;5.10;2.50;;;19.20;90.00;;;;;;5073860;28;20202;-72
2023/07/29 07:40:21;;;;;;;5.03;2.23;;;19.30;90.00;;;;;;5067149;28;20206;-71
2023/07/29 07:42:47;;;;;;;6.70;3.37;;;19.30;89.90;;;;;;5072517;28;20189;-73
2023/07/29 07:45:12;;;;;;;4.70;2.73;;;19.40;89.30;;;;;;5069803;28;20307;-72
2023/07/29 07:47:38;;;;;;;4.37;2.60;;;19.40;89.30;;;;;;5069673;28;20199;-72
2023/07/29 07:50:04;;;;;;;5.80;3.60;;;19.40;88.90;;;;;;5068721;28;20215;-73
2023/07/29 07:52:29;;;;;;;3.90;2.80;;;19.40;88.70;;;;;;5069762;28;20193;-73
2023/07/29 07:54:55;;;;;;;4.23;2.90;;;19.40;88.90;;;;;;5068434;28;20437;-73
2023/07/29 07:57:22;;;;;;;5.17;2.87;;;19.50;88.90;;;;;;5068425;28;20229;-71
2023/07/29 07:59:47;;;;;;;3.80;2.47;;;19.50;88.90;;;;;;5069417;28;20185;-72
2023/07/29 08:02:13;;;;;;;5.47;2.70;;;19.60;88.40;;;;;;5068475;28;20441;-73
2023/07/29 08:04:38;;;;;;;5.33;2.80;;;19.70;87.60;;;;;;5064436;28;20180;-73
2023/07/29 08:07:04;;;;;;;3.83;2.37;;;19.70;87.70;;;;;;5066586;28;20204;-74
2023/07/29 08:09:30;;;;;;;3.80;2.30;;;19.80;87.70;;;;;;5066558;28;20268;-73
2023/07/29 08:11:56;;;;;;;8.00;1.90;;;19.90;86.90;;;;;;5064455;28;20847;-73
2023/07/29 08:14:22;;;;;;;2.30;1.50;;;20.00;85.60;;;;;;5070164;28;20187;-73
2023/07/29 08:16:47;;;;;;;2.70;1.90;;;20.10;84.90;;;;;;5069592;28;20478;-71
2023/07/29 08:19:13;;;;;;;3.77;1.90;;;20.20;83.70;;;;;;5065013;28;20591;-74
2023/07/29 08:21:38;;;;;;;2.23;1.53;;;20.30;82.40;;;;;;5066810;28;20247;-75
2023/07/29 08:24:04;;;;;;;2.83;1.90;;;20.50;82.40;;;;;;5062275;28;20511;-77
2023/07/29 08:26:30;;;;;;;2.17;1.63;;;20.50;81.70;;;;;;5054556;28;20192;-76
2023/07/29 08:28:55;;;;;;;4.17;2.03;;;20.60;82.10;;;;;;5075273;28;20192;-76
2023/07/29 08:31:21;;;;;;;3.70;2.30;;;20.70;82.10;;;;;;5064697;28;20716;-76
2023/07/29 08:33:46;;;;;;;3.90;2.23;;;20.70;81.70;;;;;;5073847;28;20279;-76
2023/07/29 08:36:12;;;;;;;4.93;2.20;;;20.70;81.80;;;;;;5073941;28;20654;-73
2023/07/29 08:38:38;;;;;;;5.87;2.50;;;20.80;82.10;;;;;;5074084;28;20188;-72
2023/07/29 08:41:15;;;;;;;2.60;1.93;;;20.90;81.20;;;;;;5072474;28;20582;-74
2023/07/29 08:44:01;;;;;;;3.10;1.83;;;21.00;81.40;;;;;;5071621;28;20191;-75
2023/07/29 08:46:28;;;;;;;3.07;2.40;;;21.00;80.80;;;;;;5070037;28;20510;-69
2023/07/29 08:48:55;;;;;;;2.70;1.90;;;21.00;80.60;;;;;;5067157;28;20551;-69
2023/07/29 08:51:23;;;;;;;4.00;2.13;;;21.00;80.50;;;;;;5061271;28;20458;-70
2023/07/29 08:53:49;;;;;;;3.07;1.90;;;21.10;80.60;;;;;;5067444;28;20454;-70
2023/07/29 08:56:15;;;;;;;4.13;2.10;;;21.30;80.80;;;;;;5066384;28;20574;-70
2023/07/29 08:58:42;;;;;;;4.70;2.33;;;21.40;80.00;;;;;;5069440;28;20843;-71
2023/07/29 09:01:08;;;;;;;2.80;1.93;;;21.50;79.70;;;;;;5059600;28;20465;-70
2023/07/29 09:03:33;;;;;;;4.00;1.80;;;21.70;79.50;;;;;;5064556;28;20420;-70
2023/07/29 09:06:00;;;;;;;3.40;1.83;;;21.90;79.20;;;;;;5065143;28;20294;-70
2023/07/29 09:08:26;;;;;;;2.93;1.90;;;22.30;78.90;;;;;;5069170;28;20186;-71
2023/07/29 09:10:53;;;;;;;4.03;2.30;;;22.50;76.20;;;;;;5054603;28;20476;-70
2023/07/29 09:13:19;;;;;;;2.60;1.70;;;22.50;76.20;;;;;;5068596;28;21009;-71
2023/07/29 09:15:45;;;;;;;3.17;2.20;;;22.50;76.50;;;;;;5068445;28;20471;-72
2023/07/29 09:18:14;;;;;;;2.57;1.80;;;22.60;76.70;;;;;;5068046;28;20427;-72
2023/07/29 09:20:40;;;;;;;3.97;1.90;;;22.60;76.70;;;;;;5063634;28;20987;-72
2023/07/29 09:23:09;;;;;;;3.23;1.90;;;22.60;76.70;;;;;;5065984;28;20568;-72
2023/07/29 09:25:34;;;;;;;3.30;2.20;;;22.50;77.40;;;;;;5065530;28;20244;-71
2023/07/29 09:28:01;;;;;;;2.77;1.93;;;22.60;77.40;;;;;;5068701;28;20813;-71
2023/07/29 09:30:27;;;;;;;3.70;1.97;;;22.80;77.00;;;;;;5062349;28;20207;-71
2023/07/29 09:32:57;;;;;;;3.57;2.10;;;23.00;76.40;;;;;;5064271;28;20437;-71
2023/07/29 09:35:23;;;;;;;4.10;2.20;;;23.10;75.70;;;;;;5066433;28;20490;-70
2023/07/29 09:37:51;;;;;;;2.53;1.83;;;23.30;75.10;;;;;;5062997;28;20443;-70
2023/07/29 09:40:17;;;;;;;2.70;2.03;;;23.30;73.30;;;;;;5056295;28;20934;-70
2023/07/29 09:42:50;;;;;;;3.43;2.13;;;23.40;74.20;;;;;;5062928;28;20436;-70
2023/07/29 09:45:23;;;;;;;3.37;2.47;;;23.40;73.20;;;;;;5060832;28;20431;-70
2023/07/29 09:47:49;;;;;;;3.17;2.10;;;23.60;72.70;;;;;;5064940;28;20444;-70
2023/07/29 09:50:15;;;;;;;2.47;1.70;;;23.60;72.60;;;;;;5064205;28;20470;-70
2023/07/29 09:52:42;;;;;;;7.23;2.47;;;23.70;72.00;;;;;;5063148;28;20509;-74
2023/07/29 09:55:09;;;;;;;3.60;2.20;;;23.70;70.80;;;;;;5068165;28;20418;-70
2023/07/29 09:57:35;;;;;;;2.23;1.77;;;23.80;70.10;;;;;;5030444;28;1095563;-71
2023/07/29 10:00:05;;;;;;;3.03;2.07;;;23.80;71.10;;;;;;5067126;28;20449;-69
2023/07/29 10:02:31;;;;;;;3.20;2.00;;;23.90;70.50;;;;;;5060742;28;20846;-72
2023/07/29 10:04:58;;;;;;;3.20;2.10;;;24.00;71.40;;;;;;5065842;28;20956;-73
2023/07/29 10:07:24;;;;;;;2.90;2.07;;;24.10;70.50;;;;;;5071685;28;20443;-69
2023/07/29 10:09:52;;;;;;;3.90;2.10;;;24.40;69.20;;;;;;5063595;28;20438;-69
2023/07/29 10:12:19;;;;;;;4.53;2.27;;;24.70;66.40;;;;;;5061443;28;20436;-71
2023/07/29 10:14:47;;;;;;;4.70;1.97;;;24.80;66.60;;;;;;5068625;28;20424;-70
2023/07/29 10:17:15;;;;;;;2.77;2.00;;;24.90;67.00;;;;;;5065744;28;20485;-72
2023/07/29 10:19:42;;;;;;;3.73;2.23;;;24.70;67.50;;;;;;5067698;28;20438;-70
2023/07/29 10:22:09;;;;;;;2.83;2.10;;;24.50;66.30;;;;;;5063676;28;20461;-69
2023/07/29 10:24:39;;;;;;;2.77;2.27;;;24.30;66.60;;;;;;5068810;28;20458;-69
2023/07/29 10:27:06;;;;;;;3.03;2.17;;;24.50;66.30;;;;;;5069180;28;20425;-70
2023/07/29 10:29:34;;;;;;;3.10;2.30;;;24.80;64.80;;;;;;5068889;28;20506;-71
2023/07/29 10:32:03;;;;;;;3.00;1.97;;;25.10;65.30;;;;;;5063331;28;20466;-70
2023/07/29 10:34:31;;;;;;;3.20;1.90;;;25.30;63.20;;;;;;5071535;28;20440;-70
2023/07/29 10:36:57;;;;;;;3.03;2.23;;;25.20;63.80;;;;;;5068210;28;20499;-70
2023/07/29 10:39:25;;;;;;;5.30;2.50;;;25.10;63.90;;;;;;5067301;28;20425;-68
2023/07/29 10:42:06;;;;;;;3.70;2.07;;;24.90;65.30;;;;;;5065495;28;20541;-70
2023/07/29 10:44:43;;;;;;;3.53;2.03;;;24.50;67.70;;;;;;5071459;28;20491;-71
2023/07/29 10:47:12;;;;;;;2.63;1.80;;;24.40;69.40;;;;;;5072224;28;20789;-71
2023/07/29 10:49:46;;;;;;;2.80;1.90;;;23.90;71.00;;;;;;5066134;28;20490;-70
2023/07/29 10:52:29;;;;;;;4.40;2.10;;;23.50;72.40;;;;;;5066054;28;20824;-70
2023/07/29 10:54:55;;;;;;;3.70;2.50;;;23.30;73.60;;;;;;5066087;28;20442;-70
2023/07/29 10:57:34;;;;;;;2.73;2.17;;;23.50;73.30;;;;;;5071378;28;20493;-77
2023/07/29 11:00:01;;;;;;;4.83;2.20;;;23.20;72.60;;;;;;5069464;28;20179;-69
2023/07/29 11:02:32;;;;;;;2.60;1.80;;;23.50;71.10;;;;;;5068909;28;20435;-69
2023/07/29 11:04:59;;;;;;;2.53;1.80;;;23.70;71.30;;;;;;5070517;28;20481;-71
2023/07/29 11:07:28;;;;;;;2.43;1.73;;;24.00;70.50;;;;;;5070587;28;20439;-71
2023/07/29 11:09:57;;;;;;;3.43;2.20;;;24.30;68.80;;;;;;5068296;28;20447;-73
2023/07/29 11:12:42;;;;;;;3.40;1.90;;;24.70;67.30;;;;;;5064482;28;20442;-74
2023/07/29 11:15:10;;;;;;;3.57;2.20;;;24.80;66.30;;;;;;5073036;28;20420;-73
2023/07/29 11:17:42;;;;;;;2.83;1.87;;;24.90;65.40;;;;;;5068849;28;20534;-73
2023/07/29 11:20:08;;;;;;;4.87;2.47;;;25.10;65.30;;;;;;5068105;28;21200;-74
2023/07/29 11:22:35;;;;;;;3.10;1.97;;;25.30;65.30;;;;;;5069026;28;20909;-74
2023/07/29 11:25:01;;;;;;;3.47;1.90;;;25.10;65.80;;;;;;5070093;28;20428;-75
2023/07/29 11:27:26;;;;;;;4.40;2.07;;;24.90;65.40;;;;;;5066969;28;20480;-76
2023/07/29 11:29:59;;;;;;;2.80;1.73;;;24.60;66.30;;;;;;5067597;28;20865;-76
2023/07/29 11:32:26;;;;;;;3.80;2.23;;;24.80;66.30;;;;;;5066361;28;20184;-76
2023/07/29 11:34:51;;;;;;;3.30;2.10;;;25.10;65.30;;;;;;5072614;28;20930;-76
2023/07/29 11:37:17;;;;;;;4.63;2.10;;;24.90;64.70;;;;;;5073633;28;20543;-75
2023/07/29 11:39:45;;;;;;;4.00;2.67;;;25.10;65.40;;;;;;5073280;28;20189;-74
2023/07/29 11:42:11;;;;;;;3.47;2.03;;;25.30;64.40;;;;;;5067209;28;20196;-75
2023/07/29 11:44:37;;;;;;;4.37;2.57;;;25.60;63.50;;;;;;5065001;28;20435;-76
2023/07/29 11:47:07;;;;;;;3.40;2.27;;;25.70;62.80;;;;;;5070669;28;20498;-75
2023/07/29 11:49:34;;;;;;;3.90;2.20;;;25.70;62.80;;;;;;5067134;28;20427;-75
2023/07/29 11:52:00;;;;;;;4.70;2.40;;;26.00;62.20;;;;;;5061784;28;20473;-75
2023/07/29 11:54:26;;;;;;;4.53;2.30;;;25.60;62.30;;;;;;5068703;28;20425;-75
2023/07/29 11:56:51;;;;;;;3.47;2.23;;;24.90;62.80;;;;;;5067605;28;20554;-75
2023/07/29 11:59:17;;;;;;;4.57;2.70;;;25.30;63.80;;;;;;5070515;28;20430;-75
2023/07/29 12:01:43;;;;;;;5.43;2.30;;;25.90;62.80;;;;;;5065766;28;20212;-75
2023/07/29 12:04:09;;;;;;;7.30;2.60;;;25.90;62.80;;;;;;5069893;28;20188;-75
2023/07/29 12:06:35;;;;;;;3.10;2.23;;;26.00;62.60;;;;;;5071022;28;20195;-76
2023/07/29 12:09:01;;;;;;;2.50;1.70;;;25.50;63.20;;;;;;5070511;28;20428;-75
2023/07/29 12:11:27;;;;;;;2.60;1.93;;;25.90;62.30;;;;;;5066671;28;20523;-75
2023/07/29 12:13:54;;;;;;;3.83;2.73;;;26.20;61.20;;;;;;5071962;28;20189;-75
2023/07/29 12:16:19;;;;;;;3.40;2.27;;;25.90;62.20;;;;;;5070534;28;20220;-77
2023/07/29 12:18:45;;;;;;;4.07;2.40;;;26.50;60.90;;;;;;5068629;28;20486;-76
2023/07/29 12:21:14;;;;;;;5.10;2.53;;;26.50;60.90;;;;;;5067887;28;20205;-76
2023/07/29 12:23:40;;;;;;;3.47;2.20;;;25.60;62.50;;;;;;5071123;28;20192;-75
2023/07/29 12:26:06;;;;;;;4.07;2.30;;;25.50;62.90;;;;;;5071239;28;20484;-75
2023/07/29 12:28:32;;;;;;;3.53;2.53;;;25.40;62.50;;;;;;5066291;28;20187;-74
2023/07/29 12:30:57;;;;;;;4.30;2.33;;;25.50;62.30;;;;;;5065889;28;20673;-75
2023/07/29 12:33:35;;;;;;;7.00;2.60;;;26.10;61.60;;;;;;5072989;28;20194;-75
2023/07/29 12:36:01;;;;;;;2.80;2.33;;;26.90;60.10;;;;;;5070144;28;20259;-76
2023/07/29 12:38:27;;;;;;;4.33;2.83;;;27.40;59.70;;;;;;5069082;28;20535;-74
2023/07/29 12:40:53;;;;;;;2.80;2.47;;;27.50;59.70;;;;;;5073109;28;20508;-75
2023/07/29 12:43:18;;;;;;;3.70;2.73;;;27.80;57.70;;;;;;5072378;28;20896;-75